createdAt,value
2023-08-20T00:02:08.958Z,17.33
2023-08-20T00:04:38.339Z,17.13
2023-08-20T00:07:06.308Z,17.88
2023-08-20T00:09:34.196Z,18.88
2023-08-20T00:12:03.521Z,19.58
2023-08-20T00:15:10.043Z,19.95
2023-08-20T00:17:41.037Z,18.00
2023-08-20T00:20:11.513Z,25.08
2023-08-20T00:22:44.741Z,17.98
2023-08-20T00:25:17.198Z,19.92
2023-08-20T00:27:45.575Z,17.02
2023-08-20T00:30:13.677Z,15.25
2023-08-20T00:32:41.525Z,15.38
2023-08-20T00:35:09.195Z,17.38
2023-08-20T00:37:38.143Z,16.63
2023-08-20T00:40:07.145Z,17.73
2023-08-20T00:42:34.563Z,16.50
2023-08-20T00:45:01.929Z,17.58
2023-08-20T00:47:29.825Z,17.52
2023-08-20T00:49:58.025Z,19.80
2023-08-20T00:52:26.985Z,17.25
2023-08-20T00:54:55.739Z,19.25
2023-08-20T00:57:24.888Z,17.02
2023-08-20T00:59:52.510Z,17.35
2023-08-20T01:02:21.687Z,18.48
2023-08-20T01:04:50.663Z,20.40
2023-08-20T01:08:05.244Z,23.25
2023-08-20T01:10:53.307Z,17.58
2023-08-20T01:13:20.845Z,19.80
2023-08-20T01:15:48.283Z,19.80
2023-08-20T01:18:15.742Z,24.08
2023-08-20T01:20:59.398Z,21.95
2023-08-20T01:23:57.346Z,21.45
2023-08-20T01:27:18.817Z,23.33
2023-08-20T01:29:47.021Z,25.85
2023-08-20T01:32:15.136Z,24.50
2023-08-20T01:34:42.891Z,22.73
2023-08-20T01:37:10.820Z,23.00
2023-08-20T01:39:38.169Z,24.70
2023-08-20T01:42:07.245Z,23.10
2023-08-20T01:44:34.728Z,21.65
2023-08-20T01:47:03.375Z,22.02
2023-08-20T01:49:30.676Z,18.55
2023-08-20T01:51:58.009Z,24.17
2023-08-20T01:54:25.424Z,21.85
2023-08-20T01:56:52.927Z,23.63
2023-08-20T01:59:22.937Z,24.15
2023-08-20T02:01:50.315Z,22.30
2023-08-20T02:04:18.920Z,22.40
2023-08-20T02:06:46.362Z,23.73
2023-08-20T02:09:15.053Z,24.95
2023-08-20T02:11:42.431Z,23.80
2023-08-20T02:14:09.794Z,21.02
2023-08-20T02:16:38.003Z,20.17
2023-08-20T02:19:07.727Z,23.48
2023-08-20T02:21:35.405Z,23.58
2023-08-20T02:24:02.818Z,22.58
2023-08-20T02:26:30.127Z,27.77
2023-08-20T02:28:57.502Z,22.35
2023-08-20T02:31:25.101Z,22.50
2023-08-20T02:33:52.517Z,22.05
2023-08-20T02:36:19.913Z,19.58
2023-08-20T02:38:47.545Z,25.38
2023-08-20T02:41:16.311Z,22.30
2023-08-20T02:43:44.112Z,24.55
2023-08-20T02:46:11.517Z,22.95
2023-08-20T02:48:38.957Z,26.73
2023-08-20T02:51:06.307Z,25.33
2023-08-20T02:53:33.829Z,25.05
2023-08-20T02:56:01.205Z,25.42
2023-08-20T02:58:28.549Z,23.58
2023-08-20T03:00:55.862Z,23.10
2023-08-20T03:03:23.280Z,26.88
2023-08-20T03:05:51.486Z,26.48
2023-08-20T03:08:18.974Z,21.45
2023-08-20T03:10:46.543Z,22.83
2023-08-20T03:13:13.899Z,21.08
2023-08-20T03:15:41.464Z,25.02
2023-08-20T03:18:08.926Z,25.98
2023-08-20T03:20:36.491Z,22.60
2023-08-20T03:23:04.033Z,22.77
2023-08-20T03:25:31.361Z,23.83
2023-08-20T03:27:58.639Z,21.52
2023-08-20T03:30:26.036Z,23.90
2023-08-20T03:32:53.710Z,25.63
2023-08-20T03:35:21.128Z,27.02
2023-08-20T03:37:49.339Z,23.27
2023-08-20T03:40:16.907Z,27.35
2023-08-20T03:42:44.233Z,26.73
2023-08-20T03:45:11.572Z,23.98
2023-08-20T03:47:39.161Z,24.17
2023-08-20T03:50:07.394Z,25.40
2023-08-20T03:52:36.072Z,25.05
2023-08-20T03:55:04.939Z,21.35
2023-08-20T03:57:34.526Z,25.42
2023-08-20T04:00:02.122Z,19.83
2023-08-20T04:02:29.810Z,26.48
2023-08-20T04:04:59.572Z,22.50
2023-08-20T04:07:28.607Z,24.13
2023-08-20T04:09:56.122Z,27.17
2023-08-20T04:12:23.611Z,28.15
2023-08-20T04:14:50.970Z,26.30
2023-08-20T04:17:18.708Z,28.50
2023-08-20T04:19:46.230Z,21.98
2023-08-20T04:22:13.584Z,22.90
2023-08-20T04:24:40.976Z,27.20
2023-08-20T04:27:08.650Z,29.55
2023-08-20T04:29:37.280Z,30.77
2023-08-20T04:32:04.919Z,29.83
2023-08-20T04:34:33.257Z,30.52
2023-08-20T04:37:03.351Z,22.05
2023-08-20T04:39:31.857Z,28.38
2023-08-20T04:42:01.362Z,25.38
2023-08-20T04:44:28.966Z,28.67
2023-08-20T04:46:57.791Z,30.15
2023-08-20T04:49:29.646Z,28.52
2023-08-20T04:51:57.216Z,25.05
2023-08-20T04:54:24.567Z,25.42
2023-08-20T04:56:51.943Z,23.25
2023-08-20T04:59:19.344Z,22.92
2023-08-20T05:02:09.485Z,21.45
2023-08-20T05:04:45.276Z,24.03
2023-08-20T05:07:12.899Z,27.00
2023-08-20T05:09:40.210Z,23.77
2023-08-20T05:12:09.024Z,25.25
2023-08-20T05:14:37.462Z,27.05
2023-08-20T05:17:05.199Z,26.35
2023-08-20T05:19:32.867Z,23.50
2023-08-20T05:22:00.833Z,21.45
2023-08-20T05:24:32.774Z,21.08
2023-08-20T05:27:15.764Z,22.55
2023-08-20T05:29:46.047Z,22.15
2023-08-20T05:32:13.654Z,18.63
2023-08-20T05:34:42.291Z,23.17
2023-08-20T05:37:09.937Z,25.05
2023-08-20T05:39:45.734Z,20.13
2023-08-20T05:44:47.402Z,21.83
2023-08-20T05:47:18.921Z,23.75
2023-08-20T05:49:46.446Z,20.20
2023-08-20T05:52:13.792Z,21.40
2023-08-20T05:54:43.370Z,14.70
2023-08-20T05:57:11.058Z,19.85
2023-08-20T05:59:38.452Z,21.13
2023-08-20T06:02:05.996Z,20.83
2023-08-20T06:04:33.546Z,18.35
2023-08-20T06:07:00.869Z,15.77
2023-08-20T06:09:28.206Z,17.55
2023-08-20T06:11:55.536Z,16.73
2023-08-20T06:14:22.929Z,16.55
2023-08-20T06:16:50.289Z,16.30
2023-08-20T06:19:17.695Z,18.48
2023-08-20T06:21:45.008Z,17.90
2023-08-20T06:24:12.513Z,18.42
2023-08-20T06:26:39.917Z,16.30
2023-08-20T06:29:07.259Z,13.25
2023-08-20T06:31:34.795Z,17.25
2023-08-20T06:34:02.306Z,14.68
2023-08-20T06:36:29.658Z,17.67
2023-08-20T06:38:57.010Z,14.93
2023-08-20T06:41:24.965Z,15.43
2023-08-20T06:43:52.423Z,13.63
2023-08-20T06:46:20.381Z,16.73
2023-08-20T06:48:47.813Z,13.65
2023-08-20T06:51:20.004Z,15.50
2023-08-20T06:53:47.366Z,11.88
2023-08-20T06:56:15.075Z,14.68
2023-08-20T06:58:44.525Z,11.70
2023-08-20T07:01:13.705Z,15.23
2023-08-20T07:03:45.842Z,16.08
2023-08-20T07:06:15.478Z,12.88
2023-08-20T07:08:44.018Z,13.00
2023-08-20T07:11:12.466Z,12.05
2023-08-20T07:13:39.907Z,10.25
2023-08-20T07:16:07.297Z,10.45
2023-08-20T07:18:34.684Z,10.82
2023-08-20T07:21:02.081Z,12.15
2023-08-20T07:23:29.778Z,10.65
2023-08-20T07:26:16.034Z,11.70
2023-08-20T07:28:58.690Z,10.50
2023-08-20T07:31:32.266Z,11.35
2023-08-20T07:34:05.939Z,10.85
2023-08-20T07:36:34.134Z,14.30
2023-08-20T07:39:03.264Z,9.43
2023-08-20T07:41:31.475Z,11.07
2023-08-20T07:43:58.850Z,11.02
2023-08-20T07:46:26.582Z,9.25
2023-08-20T07:48:53.979Z,9.27
2023-08-20T07:51:21.381Z,10.18
2023-08-20T07:53:48.758Z,8.68
2023-08-20T07:56:16.225Z,7.95
2023-08-20T07:58:43.556Z,9.15
2023-08-20T08:01:11.105Z,11.00
2023-08-20T08:03:38.675Z,9.93
2023-08-20T08:06:06.153Z,9.57
2023-08-20T08:08:33.612Z,10.75
2023-08-20T08:11:01.191Z,6.57
2023-08-20T08:13:28.721Z,6.70
2023-08-20T08:15:56.068Z,7.53
2023-08-20T08:18:23.612Z,10.68
2023-08-20T08:20:52.541Z,7.93
2023-08-20T08:23:19.900Z,6.22
2023-08-20T08:25:47.511Z,8.38
2023-08-20T08:28:14.997Z,6.93
2023-08-20T08:30:42.449Z,10.27
2023-08-20T08:33:10.026Z,5.55
2023-08-20T08:35:37.865Z,8.93
2023-08-20T08:38:06.522Z,8.60
2023-08-20T08:40:34.776Z,7.75
2023-08-20T08:43:03.314Z,10.75
2023-08-20T08:45:34.230Z,6.72
2023-08-20T08:48:04.743Z,5.47
2023-08-20T08:50:33.959Z,8.35
2023-08-20T08:53:02.169Z,6.50
2023-08-20T08:55:29.729Z,6.95
2023-08-20T08:57:57.109Z,8.88
2023-08-20T09:00:24.608Z,6.10
2023-08-20T09:02:51.977Z,5.90
2023-08-20T09:05:19.488Z,5.75
2023-08-20T09:07:46.929Z,5.93
2023-08-20T09:10:19.549Z,6.35
2023-08-20T09:12:49.439Z,5.00
2023-08-20T09:15:16.818Z,4.78
2023-08-20T09:17:44.387Z,4.88
2023-08-20T09:20:12.228Z,4.35
2023-08-20T09:22:39.736Z,4.07
2023-08-20T09:25:07.973Z,5.75
2023-08-20T09:27:43.955Z,5.60
2023-08-20T09:30:21.471Z,4.43
2023-08-20T09:33:11.161Z,4.25
2023-08-20T09:35:38.982Z,3.55
2023-08-20T09:38:06.812Z,4.82
2023-08-20T09:40:34.238Z,2.50
2023-08-20T09:43:04.670Z,2.65
2023-08-20T09:45:32.666Z,3.67
2023-08-20T09:48:06.846Z,4.25
2023-08-20T09:50:40.403Z,6.25
2023-08-20T09:53:38.767Z,5.22
2023-08-20T09:56:31.425Z,5.82
2023-08-20T09:59:03.558Z,2.88
2023-08-20T10:01:32.013Z,3.60
2023-08-20T10:04:01.064Z,4.00
2023-08-20T10:06:31.219Z,3.75
2023-08-20T10:09:00.394Z,3.95
2023-08-20T10:11:28.388Z,1.63
2023-08-20T10:13:56.010Z,2.05
2023-08-20T10:16:25.179Z,1.50
2023-08-20T10:18:52.858Z,2.42
2023-08-20T10:21:26.260Z,2.17
2023-08-20T10:23:54.359Z,2.38
2023-08-20T10:26:25.614Z,1.55
2023-08-20T10:29:31.498Z,1.60
2023-08-20T10:31:58.897Z,1.55
2023-08-20T10:34:39.520Z,2.42
2023-08-20T10:37:14.677Z,1.15
2023-08-20T10:39:46.886Z,2.38
2023-08-20T10:42:17.131Z,2.83
2023-08-20T10:45:10.160Z,1.58
2023-08-20T10:47:49.786Z,2.17
2023-08-20T10:50:21.794Z,3.30
2023-08-20T10:52:56.314Z,4.03
2023-08-20T10:55:25.294Z,2.15
2023-08-20T10:58:00.986Z,3.03
2023-08-20T11:00:29.566Z,2.45
2023-08-20T11:03:00.226Z,2.60
2023-08-20T11:05:28.377Z,2.45
2023-08-20T11:07:56.012Z,3.80
2023-08-20T11:10:23.448Z,3.65
2023-08-20T11:12:50.757Z,3.72
2023-08-20T11:15:18.366Z,2.45
2023-08-20T11:17:51.528Z,2.72
2023-08-20T11:20:19.746Z,3.88
2023-08-20T11:22:47.234Z,3.92
2023-08-20T11:25:14.626Z,3.08
2023-08-20T11:27:45.619Z,3.55
2023-08-20T11:30:14.718Z,3.33
2023-08-20T11:32:44.059Z,1.90
2023-08-20T11:35:12.360Z,2.75
2023-08-20T11:37:41.515Z,3.25
2023-08-20T11:40:10.325Z,3.22
2023-08-20T11:42:37.927Z,3.95
2023-08-20T11:45:06.531Z,3.65
2023-08-20T11:47:43.718Z,3.72
2023-08-20T11:50:11.725Z,4.60
2023-08-20T11:52:40.952Z,3.22
2023-08-20T11:55:10.309Z,2.67
2023-08-20T11:57:38.024Z,2.67
2023-08-20T12:00:14.303Z,5.68
2023-08-20T12:02:45.075Z,2.28
2023-08-20T12:05:13.415Z,2.40
2023-08-20T12:07:41.057Z,5.35
2023-08-20T12:10:22.843Z,3.50
2023-08-20T12:12:51.340Z,4.18
2023-08-20T12:15:20.306Z,3.85
2023-08-20T12:18:08.019Z,3.83
2023-08-20T12:20:37.470Z,3.30
2023-08-20T12:23:07.977Z,3.47
2023-08-20T12:25:37.028Z,5.78
2023-08-20T12:28:08.481Z,7.53
2023-08-20T12:30:38.958Z,4.03
2023-08-20T12:33:07.944Z,9.07
2023-08-20T12:35:36.740Z,3.45
2023-08-20T12:38:05.296Z,3.65
2023-08-20T12:40:32.838Z,3.67
2023-08-20T12:43:00.203Z,4.45
2023-08-20T12:45:27.636Z,5.72
2023-08-20T12:47:55.258Z,5.05
2023-08-20T12:50:22.763Z,3.50
2023-08-20T12:52:52.050Z,4.72
2023-08-20T12:55:19.624Z,6.97
2023-08-20T12:58:00.530Z,3.33
2023-08-20T13:00:28.757Z,3.47
2023-08-20T13:02:57.885Z,5.90
2023-08-20T13:05:27.192Z,5.80
2023-08-20T13:07:55.406Z,3.42
2023-08-20T13:10:24.147Z,6.40
2023-08-20T13:12:59.924Z,3.85
2023-08-20T13:15:28.754Z,3.50
2023-08-20T13:17:56.784Z,3.65
2023-08-20T13:20:25.936Z,5.75
2023-08-20T13:22:54.408Z,4.30
2023-08-20T13:25:22.714Z,4.43
2023-08-20T13:27:50.847Z,4.70
2023-08-20T13:30:19.073Z,3.53
2023-08-20T13:32:46.641Z,4.55
2023-08-20T13:35:15.672Z,3.58
2023-08-20T13:37:43.623Z,4.00
2023-08-20T13:40:12.847Z,3.17
2023-08-20T13:42:40.171Z,3.50
2023-08-20T13:45:08.859Z,4.35
2023-08-20T13:47:36.508Z,5.55
2023-08-20T13:50:05.844Z,4.57
2023-08-20T13:52:33.365Z,4.68
2023-08-20T13:55:00.841Z,3.83
2023-08-20T13:57:28.255Z,6.85
2023-08-20T13:59:56.673Z,4.72
2023-08-20T14:02:24.129Z,6.10
2023-08-20T14:04:52.050Z,5.60
2023-08-20T14:07:20.008Z,6.57
2023-08-20T14:09:47.488Z,3.55
2023-08-20T14:12:14.866Z,3.17
2023-08-20T14:14:42.358Z,3.88
2023-08-20T14:17:10.554Z,1.92
2023-08-20T14:19:37.933Z,5.03
2023-08-20T14:22:05.369Z,5.35
2023-08-20T14:24:32.916Z,7.00
2023-08-20T14:27:00.291Z,4.57
2023-08-20T14:29:29.247Z,3.72
2023-08-20T14:31:56.597Z,3.25
2023-08-20T14:34:24.004Z,5.93
2023-08-20T14:36:52.754Z,3.60
2023-08-20T14:39:21.691Z,4.50
2023-08-20T14:41:49.006Z,3.00
2023-08-20T14:44:16.464Z,4.95
2023-08-20T14:46:43.824Z,5.72
2023-08-20T14:49:11.189Z,4.22
2023-08-20T14:51:38.542Z,4.60
2023-08-20T14:54:06.274Z,5.95
2023-08-20T14:56:33.752Z,4.35
2023-08-20T14:59:01.167Z,3.97
2023-08-20T15:01:28.688Z,3.15
2023-08-20T15:03:56.070Z,5.88
2023-08-20T15:06:25.805Z,5.22
2023-08-20T15:08:54.324Z,5.28
2023-08-20T15:11:21.766Z,5.55
2023-08-20T15:13:49.190Z,3.97
2023-08-20T15:16:16.581Z,2.95
2023-08-20T15:18:43.893Z,4.68
2023-08-20T15:21:12.828Z,3.88
2023-08-20T15:23:40.305Z,5.70
2023-08-20T15:26:08.672Z,4.47
2023-08-20T15:28:36.104Z,5.10
2023-08-20T15:31:03.606Z,5.68
2023-08-20T15:33:31.471Z,4.70
2023-08-20T15:36:00.567Z,3.75
2023-08-20T15:38:29.023Z,6.72
2023-08-20T15:40:56.710Z,6.60
2023-08-20T15:43:24.090Z,5.05
2023-08-20T15:45:51.633Z,4.53
2023-08-20T15:48:19.328Z,8.30
2023-08-20T15:50:46.810Z,4.28
2023-08-20T15:53:14.938Z,3.38
2023-08-20T15:55:42.448Z,4.20
2023-08-20T15:58:09.856Z,3.30
2023-08-20T16:00:37.517Z,5.60
2023-08-20T16:03:05.574Z,4.70
2023-08-20T16:05:33.078Z,5.15
2023-08-20T16:08:00.418Z,4.95
2023-08-20T16:10:27.779Z,6.03
2023-08-20T16:12:55.142Z,6.85
2023-08-20T16:15:22.546Z,5.13
2023-08-20T16:17:50.019Z,5.78
2023-08-20T16:20:17.470Z,3.55
2023-08-20T16:22:46.259Z,3.05
2023-08-20T16:25:13.659Z,5.75
2023-08-20T16:27:41.368Z,4.88
2023-08-20T16:30:11.811Z,5.82
2023-08-20T16:32:40.025Z,4.93
2023-08-20T16:35:08.625Z,5.82
2023-08-20T16:37:36.344Z,5.35
2023-08-20T16:40:09.021Z,4.30
2023-08-20T16:42:36.653Z,8.48
2023-08-20T16:45:04.649Z,4.43
2023-08-20T16:47:32.062Z,5.78
2023-08-20T16:49:59.418Z,4.63
2023-08-20T16:52:26.803Z,4.28
2023-08-20T16:54:55.899Z,3.30
2023-08-20T16:57:24.076Z,5.18
2023-08-20T16:59:53.318Z,5.10
2023-08-20T17:02:21.423Z,4.90
2023-08-20T17:04:50.608Z,4.82
2023-08-20T17:07:18.257Z,6.53
2023-08-20T17:09:45.837Z,4.60
2023-08-20T17:12:13.682Z,3.50
2023-08-20T17:14:41.552Z,6.43
2023-08-20T17:17:10.457Z,5.93
2023-08-20T17:19:37.830Z,3.53
2023-08-20T17:22:05.499Z,4.78
2023-08-20T17:24:33.229Z,4.88
2023-08-20T17:27:00.928Z,5.97
2023-08-20T17:29:28.689Z,3.33
2023-08-20T17:31:56.162Z,3.83
2023-08-20T17:34:23.768Z,3.58
2023-08-20T17:36:51.225Z,3.22
2023-08-20T17:39:21.330Z,3.83
2023-08-20T17:41:48.774Z,5.18
2023-08-20T17:44:16.235Z,4.25
2023-08-20T17:46:49.563Z,7.78
2023-08-20T17:49:20.456Z,5.93
2023-08-20T17:51:49.010Z,6.68
2023-08-20T17:54:17.508Z,8.45
2023-08-20T17:56:44.879Z,6.03
2023-08-20T17:59:12.269Z,5.32
2023-08-20T18:01:39.992Z,6.30
2023-08-20T18:04:07.514Z,3.13
2023-08-20T18:06:34.918Z,4.72
2023-08-20T18:09:02.320Z,5.60
2023-08-20T18:11:29.743Z,4.55
2023-08-20T18:13:57.128Z,6.93
2023-08-20T18:16:24.584Z,6.97
2023-08-20T18:18:52.076Z,4.97
2023-08-20T18:21:19.526Z,3.85
2023-08-20T18:23:48.280Z,8.63
2023-08-20T18:26:15.782Z,5.32
2023-08-20T18:28:43.133Z,6.30
2023-08-20T18:31:10.784Z,5.43
2023-08-20T18:33:38.208Z,8.90
2023-08-20T18:36:05.923Z,4.22
2023-08-20T18:38:33.938Z,5.18
2023-08-20T18:41:08.272Z,8.15
2023-08-20T18:43:35.664Z,5.57
2023-08-20T18:46:04.465Z,7.00
2023-08-20T18:48:35.057Z,5.60
2023-08-20T18:51:07.336Z,5.28
2023-08-20T18:53:35.619Z,6.72
2023-08-20T18:56:06.374Z,11.98
2023-08-20T18:58:34.866Z,8.18
2023-08-20T19:01:02.933Z,6.43
2023-08-20T19:03:31.355Z,4.72
2023-08-20T19:05:59.051Z,8.10
2023-08-20T19:08:27.083Z,7.22
2023-08-20T19:10:54.545Z,7.20
2023-08-20T19:13:22.022Z,8.15
2023-08-20T19:15:51.475Z,7.13
2023-08-20T19:18:19.554Z,5.97
2023-08-20T19:20:56.248Z,7.05
2023-08-20T19:23:24.598Z,3.92
2023-08-20T19:25:52.409Z,10.63
2023-08-20T19:28:19.811Z,5.15
2023-08-20T19:30:54.389Z,5.10
2023-08-20T19:33:25.405Z,4.22
2023-08-20T19:35:52.780Z,4.22
2023-08-20T19:38:20.163Z,7.82
2023-08-20T19:40:48.715Z,13.35
2023-08-20T19:43:16.554Z,6.25
2023-08-20T19:45:44.033Z,8.75
2023-08-20T19:48:12.729Z,6.35
2023-08-20T19:50:41.014Z,5.20
2023-08-20T19:53:08.437Z,6.07
2023-08-20T19:55:35.842Z,7.45
2023-08-20T19:58:04.832Z,6.47
2023-08-20T20:00:32.625Z,4.47
2023-08-20T20:02:59.974Z,6.88
2023-08-20T20:05:30.878Z,6.03
2023-08-20T20:08:03.256Z,5.72
2023-08-20T20:10:30.679Z,6.82
2023-08-20T20:12:58.050Z,6.50
2023-08-20T20:15:25.430Z,5.68
2023-08-20T20:17:52.961Z,5.82
2023-08-20T20:20:23.027Z,6.20
2023-08-20T20:22:51.038Z,8.55
2023-08-20T20:25:18.439Z,8.32
2023-08-20T20:27:47.562Z,5.13
2023-08-20T20:30:15.145Z,5.32
2023-08-20T20:32:42.697Z,9.23
2023-08-20T20:35:10.976Z,8.70
2023-08-20T20:37:42.217Z,6.38
2023-08-20T20:40:10.656Z,9.90
2023-08-20T20:42:38.683Z,7.75
2023-08-20T20:45:07.458Z,7.15
2023-08-20T20:47:39.099Z,8.50
2023-08-20T20:50:08.652Z,5.55
2023-08-20T20:52:37.166Z,4.40
2023-08-20T20:55:06.517Z,7.05
2023-08-20T20:57:33.915Z,6.82
2023-08-20T21:00:01.819Z,6.57
2023-08-20T21:02:29.518Z,4.63
2023-08-20T21:04:57.124Z,5.72
2023-08-20T21:07:25.207Z,6.78
2023-08-20T21:09:52.913Z,11.43
2023-08-20T21:12:20.305Z,5.82
2023-08-20T21:14:47.740Z,6.05
2023-08-20T21:17:15.316Z,7.45
2023-08-20T21:19:42.693Z,5.75
2023-08-20T21:22:16.280Z,10.70
2023-08-20T21:24:44.697Z,8.63
2023-08-20T21:27:12.337Z,9.45
2023-08-20T21:29:41.171Z,11.20
2023-08-20T21:32:10.211Z,5.93
2023-08-20T21:34:39.551Z,7.50
2023-08-20T21:37:06.971Z,5.97
2023-08-20T21:39:34.329Z,5.03
2023-08-20T21:42:01.719Z,7.25
2023-08-20T21:44:30.067Z,6.30
2023-08-20T21:46:57.515Z,9.77
2023-08-20T21:49:25.089Z,4.88
2023-08-20T21:51:53.055Z,10.07
2023-08-20T21:54:20.898Z,7.03
2023-08-20T21:56:52.465Z,5.57
2023-08-20T21:59:20.156Z,6.78
2023-08-20T22:01:47.901Z,10.63
2023-08-20T22:04:15.347Z,8.10
2023-08-20T22:06:42.753Z,5.70
2023-08-20T22:09:10.066Z,7.25
2023-08-20T22:11:37.425Z,6.40
2023-08-20T22:14:04.783Z,9.15
2023-08-20T22:16:32.163Z,5.57
2023-08-20T22:18:59.581Z,5.32
2023-08-20T22:21:26.950Z,7.90
2023-08-20T22:23:54.356Z,8.10
2023-08-20T22:26:21.715Z,6.03
2023-08-20T22:28:49.174Z,7.68
2023-08-20T22:31:16.537Z,7.57
2023-08-20T22:33:43.943Z,10.25
2023-08-20T22:36:11.340Z,5.82
2023-08-20T22:38:39.090Z,6.63
2023-08-20T22:41:06.557Z,8.80
2023-08-20T22:43:34.168Z,5.97
2023-08-20T22:46:01.533Z,8.32
2023-08-20T22:48:28.950Z,6.50
2023-08-20T22:50:56.338Z,7.30
2023-08-20T22:53:23.734Z,7.30
2023-08-20T22:55:52.405Z,9.32
2023-08-20T22:58:20.421Z,7.05
2023-08-20T23:00:49.449Z,5.95
2023-08-20T23:03:16.889Z,8.40
2023-08-20T23:05:44.387Z,6.80
2023-08-20T23:08:12.080Z,6.68
2023-08-20T23:10:39.458Z,4.82
2023-08-20T23:13:06.907Z,7.85
2023-08-20T23:15:34.236Z,11.30
2023-08-20T23:18:01.625Z,6.22
2023-08-20T23:20:29.155Z,10.63
2023-08-20T23:22:56.988Z,8.38
2023-08-20T23:25:24.490Z,7.93
2023-08-20T23:27:51.849Z,10.40
2023-08-20T23:30:19.406Z,6.80
2023-08-20T23:32:53.690Z,8.68
2023-08-20T23:35:21.050Z,7.15
2023-08-20T23:37:48.361Z,6.78
2023-08-20T23:40:16.317Z,6.32
2023-08-20T23:42:45.006Z,11.82
2023-08-20T23:45:12.338Z,8.40
2023-08-20T23:47:39.664Z,9.88
2023-08-20T23:50:09.741Z,6.18
2023-08-20T23:52:37.396Z,8.90
2023-08-20T23:55:05.485Z,9.57
2023-08-20T23:57:32.818Z,11.77
